ADDS TAF Data INFO
IDs: Format: Raw Decoded Include METARs

Data at: 0039 UTC 23 Jun 2018

KTCC 222353Z AUTO 26023G35KT 10SM CLR 41/M05 A2965 RMK AO2 PK WND 21036/2300 SLP956 T04111050 10422 20372 56028

KTCC 222332Z 2300/2324 22025G33KT P6SM SCT130
  FM230300 02015G25KT P6SM FEW120
  FM230900 02010KT P6SM FEW025
  FM231600 16008KT P6SM SKC